Time;durP1;ratioP1;P1;durP2;ratioP2;P2;SDS_P1;SDS_P2;PMS_P1;PMS_P2;Temp;Humidity;BMP_temperature;BMP_pressure;BME280_temperature;BME280_humidity;BME280_pressure;Samples;Min_cycle;Max_cycle;Signal;HPM_P1;HPM_P2
2021/01/23 00:00:11;;;;;;;16.67;9.57;;;3.70;99.90;;;;;;5076345;28;20207;-78
2021/01/23 00:02:38;;;;;;;15.83;9.37;;;3.70;99.90;;;;;;5076532;28;20653;-78
2021/01/23 00:05:07;;;;;;;15.43;10.00;;;3.80;99.90;;;;;;5076706;28;20203;-79
2021/01/23 00:07:33;;;;;;;14.53;9.60;;;3.70;99.90;;;;;;5075960;28;20240;-78
2021/01/23 00:09:59;;;;;;;13.33;9.93;;;3.70;99.90;;;;;;5076608;28;20209;-78
2021/01/23 00:12:26;;;;;;;12.93;8.70;;;3.80;99.90;;;;;;5076047;28;20676;-78
2021/01/23 00:14:52;;;;;;;13.70;9.87;;;3.80;99.90;;;;;;5076484;28;20286;-78
2021/01/23 00:17:19;;;;;;;12.93;8.83;;;3.90;99.90;;;;;;5076546;28;20207;-78
2021/01/23 00:19:45;;;;;;;12.43;8.60;;;3.80;99.90;;;;;;5076498;28;20286;-80
2021/01/23 00:22:12;;;;;;;16.30;8.97;;;3.90;99.90;;;;;;5076221;28;20555;-80
2021/01/23 00:24:38;;;;;;;15.67;8.90;;;4.00;99.90;;;;;;5076390;28;20233;-78
2021/01/23 00:27:05;;;;;;;16.07;9.43;;;4.00;99.90;;;;;;5076272;28;20332;-78
2021/01/23 00:29:31;;;;;;;16.33;8.90;;;4.00;99.90;;;;;;5061680;28;20199;-78
2021/01/23 00:31:58;;;;;;;14.27;10.20;;;4.10;99.90;;;;;;5076292;28;20542;-78
2021/01/23 00:34:24;;;;;;;15.17;8.80;;;4.20;99.90;;;;;;5076137;28;20276;-78
2021/01/23 00:36:51;;;;;;;14.90;9.10;;;4.20;99.90;;;;;;5075931;28;20199;-78
2021/01/23 00:39:18;;;;;;;14.53;8.83;;;4.20;99.90;;;;;;5075709;28;20573;-78
2021/01/23 00:41:44;;;;;;;13.30;8.27;;;4.20;99.90;;;;;;5076217;28;20210;-79
2021/01/23 00:44:10;;;;;;;13.70;8.90;;;4.30;99.90;;;;;;5076222;28;20206;-78
2021/01/23 00:46:37;;;;;;;13.47;6.87;;;4.30;99.90;;;;;;5076103;28;20599;-78
2021/01/23 00:49:03;;;;;;;18.20;8.10;;;4.30;99.90;;;;;;5075705;28;20713;-79
2021/01/23 00:51:29;;;;;;;14.57;8.10;;;4.40;99.90;;;;;;5075776;28;20289;-78
2021/01/23 00:53:56;;;;;;;10.53;7.30;;;4.60;99.90;;;;;;5075542;28;20219;-79
2021/01/23 00:56:23;;;;;;;11.83;7.47;;;4.30;99.90;;;;;;5075795;28;20198;-79
2021/01/23 00:58:49;;;;;;;13.60;7.77;;;4.30;99.90;;;;;;5075447;28;20530;-78
2021/01/23 01:01:16;;;;;;;12.40;7.13;;;4.30;99.90;;;;;;5075805;28;20199;-78
2021/01/23 01:03:42;;;;;;;14.97;7.30;;;4.30;99.90;;;;;;5075414;28;20205;-78
2021/01/23 01:06:09;;;;;;;12.07;7.17;;;4.20;99.90;;;;;;5075777;28;20236;-79
2021/01/23 01:08:35;;;;;;;14.20;7.57;;;4.30;99.90;;;;;;5075343;28;20195;-80
2021/01/23 01:11:01;;;;;;;13.03;8.00;;;4.30;99.90;;;;;;5075681;28;20245;-78
2021/01/23 01:13:29;;;;;;;11.23;6.47;;;4.30;99.90;;;;;;5075454;28;20218;-79
2021/01/23 01:15:55;;;;;;;12.10;7.80;;;4.30;99.90;;;;;;5075151;28;20655;-78
2021/01/23 01:18:21;;;;;;;12.90;7.47;;;4.30;99.90;;;;;;5075293;28;20260;-78
2021/01/23 01:20:48;;;;;;;9.03;6.60;;;4.30;99.90;;;;;;5075068;28;20290;-79
2021/01/23 01:23:14;;;;;;;13.43;6.63;;;4.40;99.90;;;;;;5075797;28;20207;-79
2021/01/23 01:25:40;;;;;;;13.40;7.03;;;4.50;99.90;;;;;;5075399;28;20627;-78
2021/01/23 01:28:07;;;;;;;11.93;7.63;;;4.60;99.90;;;;;;5075010;28;20285;-79
2021/01/23 01:30:34;;;;;;;12.60;7.23;;;4.60;99.90;;;;;;5075152;28;20206;-78
2021/01/23 01:33:00;;;;;;;10.13;6.37;;;4.50;99.90;;;;;;5074544;28;20230;-79
2021/01/23 01:35:26;;;;;;;15.63;7.20;;;4.60;99.90;;;;;;5074865;28;20642;-78
2021/01/23 01:37:53;;;;;;;12.23;6.67;;;4.50;99.90;;;;;;5075172;28;20207;-79
2021/01/23 01:40:19;;;;;;;14.70;6.80;;;4.60;99.90;;;;;;5074577;28;20191;-78
2021/01/23 01:42:45;;;;;;;11.17;6.60;;;4.70;99.90;;;;;;5074820;28;20217;-80
2021/01/23 01:45:13;;;;;;;10.60;6.70;;;4.50;99.90;;;;;;5074916;28;20206;-79
2021/01/23 01:47:40;;;;;;;11.13;6.67;;;4.60;99.90;;;;;;5074927;28;20207;-78
2021/01/23 01:50:08;;;;;;;10.67;7.30;;;4.70;99.90;;;;;;5074654;28;20203;-80
2021/01/23 01:52:34;;;;;;;10.10;6.97;;;4.70;99.90;;;;;;5074707;28;20221;-78
2021/01/23 01:55:01;;;;;;;12.07;6.87;;;4.80;99.90;;;;;;5074213;28;20213;-79
2021/01/23 01:57:28;;;;;;;11.87;6.87;;;4.80;99.90;;;;;;5074581;28;20205;-79
2021/01/23 01:59:54;;;;;;;10.27;6.10;;;4.80;99.90;;;;;;5074197;28;20206;-79
2021/01/23 02:02:48;;;;;;;8.73;6.47;;;4.80;99.90;;;;;;5074208;28;20724;-79
2021/01/23 02:05:24;;;;;;;12.97;6.27;;;4.80;99.90;;;;;;5058672;28;20253;-79
2021/01/23 02:07:58;;;;;;;10.63;6.23;;;4.70;99.90;;;;;;5074575;28;20202;-79
2021/01/23 02:10:38;;;;;;;14.60;6.73;;;4.70;99.90;;;;;;5074147;28;20228;-79
2021/01/23 02:13:19;;;;;;;12.13;6.80;;;4.70;99.90;;;;;;5073684;28;20211;-82
2021/01/23 02:15:52;;;;;;;9.77;6.87;;;4.70;99.90;;;;;;5074364;28;20207;-79
2021/01/23 02:18:22;;;;;;;10.97;6.90;;;4.70;99.90;;;;;;5070581;28;20203;-79
2021/01/23 02:21:28;;;;;;;12.33;6.97;;;4.70;99.90;;;;;;5074178;28;20221;-79
2021/01/23 02:23:59;;;;;;;11.40;6.57;;;4.70;99.90;;;;;;5066253;28;20666;-79
2021/01/23 02:26:35;;;;;;;12.20;7.43;;;4.70;99.90;;;;;;5060925;28;20201;-79
2021/01/23 02:29:07;;;;;;;9.13;6.43;;;4.60;99.90;;;;;;5074407;28;20210;-79
2021/01/23 02:31:38;;;;;;;11.87;6.77;;;4.60;99.90;;;;;;5060933;28;20270;-79
2021/01/23 02:34:07;;;;;;;13.83;7.00;;;4.50;99.90;;;;;;5073480;28;20232;-80
2021/01/23 02:36:35;;;;;;;9.93;6.60;;;4.40;99.90;;;;;;5073224;28;20281;-80
2021/01/23 02:39:03;;;;;;;12.43;6.87;;;4.50;99.90;;;;;;5073127;28;20195;-79
2021/01/23 02:41:30;;;;;;;13.87;7.20;;;4.50;99.90;;;;;;5072648;28;20566;-80
2021/01/23 02:43:57;;;;;;;6.97;6.00;;;4.50;99.90;;;;;;5073223;28;20653;-80
2021/01/23 02:46:24;;;;;;;10.40;6.47;;;4.50;99.90;;;;;;5072841;28;20213;-80
2021/01/23 02:48:51;;;;;;;16.53;6.50;;;4.50;99.90;;;;;;5073045;28;20206;-80
2021/01/23 02:51:26;;;;;;;11.77;6.60;;;4.50;99.90;;;;;;5072933;28;20201;-81
2021/01/23 02:53:57;;;;;;;12.43;7.30;;;4.30;99.90;;;;;;5073099;28;20313;-80
2021/01/23 02:56:25;;;;;;;14.80;6.83;;;4.40;99.90;;;;;;5072840;28;20195;-80
2021/01/23 02:58:53;;;;;;;10.70;6.63;;;4.30;99.90;;;;;;5072876;28;20566;-80
2021/01/23 03:01:22;;;;;;;8.67;6.17;;;4.30;99.90;;;;;;5072573;28;20579;-80
2021/01/23 03:03:52;;;;;;;11.53;6.73;;;4.30;99.90;;;;;;5072322;28;20210;-80
2021/01/23 03:06:19;;;;;;;10.83;6.60;;;4.20;99.90;;;;;;5073027;28;20233;-80
2021/01/23 03:08:46;;;;;;;10.00;6.90;;;4.20;99.90;;;;;;5072473;28;20207;-80
2021/01/23 03:11:13;;;;;;;10.67;7.27;;;4.20;99.90;;;;;;5072336;28;20547;-81
2021/01/23 03:13:39;;;;;;;12.83;6.70;;;4.10;99.90;;;;;;5072468;28;20230;-80
2021/01/23 03:16:06;;;;;;;10.80;6.70;;;4.20;99.90;;;;;;5064122;28;20211;-80
2021/01/23 03:18:32;;;;;;;8.57;6.63;;;4.10;99.90;;;;;;5067223;28;20206;-80
2021/01/23 03:21:00;;;;;;;14.53;7.03;;;4.00;99.90;;;;;;5072376;28;20195;-79
2021/01/23 03:23:26;;;;;;;16.33;6.80;;;4.10;99.90;;;;;;5072171;28;20703;-80
2021/01/23 03:25:53;;;;;;;11.97;7.23;;;4.10;99.90;;;;;;5072524;28;20199;-79
2021/01/23 03:28:20;;;;;;;13.23;6.83;;;4.10;99.90;;;;;;5072666;28;20195;-80
2021/01/23 03:30:46;;;;;;;10.67;7.17;;;4.40;99.90;;;;;;5071023;28;20203;-80
2021/01/23 03:33:13;;;;;;;8.60;6.67;;;4.00;99.90;;;;;;5050500;28;625899;-80
2021/01/23 03:35:39;;;;;;;12.70;6.80;;;4.00;99.90;;;;;;5073106;28;20209;-79
2021/01/23 03:38:07;;;;;;;10.23;7.00;;;4.10;99.90;;;;;;5072749;28;20199;-80
2021/01/23 03:40:33;;;;;;;9.17;7.03;;;4.00;99.90;;;;;;5060044;28;20223;-79
2021/01/23 03:43:00;;;;;;;11.07;7.10;;;4.00;99.90;;;;;;5072304;28;20202;-80
2021/01/23 03:45:26;;;;;;;11.70;7.33;;;4.00;99.90;;;;;;5073128;28;20199;-80
2021/01/23 03:47:52;;;;;;;10.40;6.90;;;4.00;99.90;;;;;;5058649;28;20201;-80
2021/01/23 03:50:19;;;;;;;11.10;6.90;;;4.10;99.90;;;;;;5072741;28;20606;-80
2021/01/23 03:52:45;;;;;;;11.60;6.90;;;4.00;99.90;;;;;;5072918;28;20623;-80
2021/01/23 03:55:13;;;;;;;13.50;7.10;;;4.00;99.90;;;;;;5072657;28;20650;-80
2021/01/23 03:57:39;;;;;;;11.70;6.83;;;3.90;99.90;;;;;;5073145;28;20199;-79
2021/01/23 04:00:07;;;;;;;8.80;7.27;;;3.90;99.90;;;;;;5072843;28;20195;-79
2021/01/23 04:02:33;;;;;;;9.10;7.20;;;3.90;99.90;;;;;;5072790;28;20259;-79
2021/01/23 04:05:00;;;;;;;13.97;7.20;;;3.90;99.90;;;;;;5072808;28;20211;-80
2021/01/23 04:07:26;;;;;;;11.03;7.27;;;4.20;99.90;;;;;;5072599;28;20568;-80
2021/01/23 04:09:53;;;;;;;11.17;7.30;;;3.90;99.90;;;;;;5072948;28;20593;-79
2021/01/23 04:12:20;;;;;;;12.17;7.33;;;3.80;99.90;;;;;;5073095;28;20240;-80
2021/01/23 04:14:47;;;;;;;14.03;7.90;;;3.90;99.90;;;;;;5072449;28;20279;-79
2021/01/23 04:17:13;;;;;;;12.50;7.83;;;3.90;99.90;;;;;;5072539;28;20214;-80
2021/01/23 04:19:39;;;;;;;10.90;7.07;;;3.80;99.90;;;;;;5072439;28;20199;-80
2021/01/23 04:22:06;;;;;;;11.10;6.83;;;3.80;99.90;;;;;;5072303;28;20728;-80
2021/01/23 04:24:32;;;;;;;14.33;7.70;;;3.80;99.90;;;;;;5072434;28;20671;-79
2021/01/23 04:26:58;;;;;;;13.90;7.50;;;3.80;99.90;;;;;;5072877;28;20211;-79
2021/01/23 04:29:25;;;;;;;13.47;7.53;;;3.70;99.90;;;;;;5072577;28;20210;-81
2021/01/23 04:31:52;;;;;;;14.20;8.03;;;3.70;99.90;;;;;;5072310;28;20209;-80
2021/01/23 04:34:18;;;;;;;15.73;7.60;;;3.90;99.90;;;;;;5072316;28;20314;-80
2021/01/23 04:36:44;;;;;;;13.63;8.57;;;3.70;99.90;;;;;;5072734;28;20289;-80
2021/01/23 04:39:11;;;;;;;14.53;8.90;;;3.70;99.90;;;;;;5072444;28;20289;-79
2021/01/23 04:41:37;;;;;;;17.17;9.07;;;3.70;99.90;;;;;;5073090;28;20259;-79
2021/01/23 04:44:05;;;;;;;16.10;8.80;;;3.70;99.90;;;;;;5076142;28;20326;-79
2021/01/23 04:46:32;;;;;;;20.50;10.30;;;3.60;99.90;;;;;;5062098;28;20202;-79
2021/01/23 04:48:58;;;;;;;20.00;9.30;;;3.60;99.90;;;;;;5076203;28;20207;-79
2021/01/23 04:51:26;;;;;;;19.70;9.70;;;3.60;99.90;;;;;;5075994;28;20209;-79
2021/01/23 04:53:53;;;;;;;18.93;9.27;;;3.60;99.90;;;;;;5075903;28;20225;-79
2021/01/23 04:56:20;;;;;;;21.00;9.67;;;3.70;99.90;;;;;;5075305;28;20210;-80
2021/01/23 04:58:46;;;;;;;23.13;9.90;;;3.70;99.90;;;;;;5075922;28;20209;-79
2021/01/23 05:01:13;;;;;;;18.23;10.47;;;3.90;99.90;;;;;;5075691;28;20207;-80
2021/01/23 05:03:57;;;;;;;20.60;10.67;;;3.80;99.90;;;;;;5076017;28;20207;-80
2021/01/23 05:06:24;;;;;;;18.27;10.70;;;4.10;99.90;;;;;;5075698;28;20669;-79
2021/01/23 05:08:51;;;;;;;17.67;10.57;;;3.90;99.90;;;;;;5075559;28;20590;-79
2021/01/23 05:11:17;;;;;;;18.80;9.40;;;3.80;99.90;;;;;;5075808;28;20211;-79
2021/01/23 05:14:04;;;;;;;17.13;9.03;;;3.70;99.90;;;;;;5061409;28;20562;-79
2021/01/23 05:16:31;;;;;;;16.47;9.47;;;3.70;99.90;;;;;;5075468;28;20767;-79
2021/01/23 05:19:01;;;;;;;15.80;9.80;;;3.70;99.90;;;;;;5075270;28;20650;-80
2021/01/23 05:21:28;;;;;;;17.20;9.80;;;3.80;99.90;;;;;;5075838;28;20685;-79
2021/01/23 05:24:09;;;;;;;16.50;9.67;;;3.80;99.90;;;;;;5075339;28;20252;-79
2021/01/23 05:26:36;;;;;;;16.47;9.80;;;3.80;99.90;;;;;;5075460;28;20206;-80
2021/01/23 05:29:10;;;;;;;18.83;10.07;;;3.70;99.90;;;;;;5075341;28;20293;-80
2021/01/23 05:31:37;;;;;;;17.70;9.43;;;3.60;99.90;;;;;;5075489;28;20250;-79
2021/01/23 05:34:30;;;;;;;23.00;10.60;;;3.60;99.90;;;;;;5061219;28;20314;-79
2021/01/23 05:36:57;;;;;;;18.13;9.63;;;3.60;99.90;;;;;;5069489;28;20199;-79
2021/01/23 05:39:46;;;;;;;23.23;10.17;;;3.60;99.90;;;;;;5075076;28;20210;-80
2021/01/23 05:42:12;;;;;;;19.73;9.83;;;3.70;99.90;;;;;;5075200;28;20203;-80
2021/01/23 05:44:38;;;;;;;15.70;9.03;;;3.50;99.90;;;;;;5074713;28;20209;-80
2021/01/23 05:47:26;;;;;;;15.13;8.80;;;3.50;99.90;;;;;;5074766;28;20234;-81
2021/01/23 05:49:54;;;;;;;15.17;8.63;;;3.50;99.90;;;;;;5074756;28;20285;-80
2021/01/23 05:52:21;;;;;;;25.40;9.67;;;3.40;99.90;;;;;;5075033;28;20260;-79
2021/01/23 05:54:47;;;;;;;20.13;10.10;;;3.30;99.90;;;;;;5059372;28;20713;-80
2021/01/23 05:57:15;;;;;;;19.57;10.43;;;3.30;99.90;;;;;;5074817;28;20293;-80
2021/01/23 05:59:41;;;;;;;18.03;9.97;;;3.30;99.90;;;;;;5074684;28;20207;-79
2021/01/23 06:02:10;;;;;;;18.37;10.63;;;3.30;99.90;;;;;;5075291;28;20601;-79
2021/01/23 06:04:37;;;;;;;17.40;9.40;;;3.40;99.90;;;;;;5074889;28;20206;-80
2021/01/23 06:07:04;;;;;;;17.13;9.20;;;3.30;99.90;;;;;;5074773;28;20218;-80
2021/01/23 06:09:39;;;;;;;15.93;9.47;;;3.20;99.90;;;;;;5074557;28;20210;-80
2021/01/23 06:12:26;;;;;;;18.60;10.77;;;3.30;99.90;;;;;;5060961;28;20210;-80
2021/01/23 06:14:52;;;;;;;18.40;9.03;;;3.30;99.90;;;;;;5074232;28;20222;-80
2021/01/23 06:17:46;;;;;;;16.93;9.03;;;3.40;99.90;;;;;;5074498;28;20213;-79
2021/01/23 06:20:48;;;;;;;17.93;9.60;;;3.40;99.90;;;;;;5074023;28;20207;-80
2021/01/23 06:23:17;;;;;;;21.90;10.03;;;3.40;99.90;;;;;;5074196;28;20665;-80
2021/01/23 06:26:00;;;;;;;19.67;9.70;;;3.30;99.90;;;;;;5073831;28;20615;-80
2021/01/23 06:28:51;;;;;;;20.07;9.20;;;3.30;99.90;;;;;;5074538;28;20229;-80
2021/01/23 06:31:32;;;;;;;21.57;9.47;;;3.30;99.90;;;;;;5061062;28;20207;-80
2021/01/23 06:33:59;;;;;;;19.37;10.57;;;3.30;99.90;;;;;;5073831;28;20681;-80
2021/01/23 06:36:26;;;;;;;18.93;9.47;;;3.30;99.90;;;;;;5074133;28;20564;-80
2021/01/23 06:39:08;;;;;;;20.43;9.60;;;3.40;99.90;;;;;;5073675;28;20552;-80
2021/01/23 06:41:36;;;;;;;19.20;9.40;;;3.30;99.90;;;;;;5061238;28;20213;-81
2021/01/23 06:44:10;;;;;;;16.10;7.87;;;3.30;99.90;;;;;;5074053;28;20289;-81
2021/01/23 06:46:38;;;;;;;24.30;10.67;;;3.30;99.90;;;;;;5060560;28;20650;-81
2021/01/23 06:49:06;;;;;;;19.73;9.80;;;3.20;99.90;;;;;;5073823;28;20198;-80
2021/01/23 06:51:33;;;;;;;21.13;9.57;;;3.20;99.90;;;;;;5073757;28;20281;-80
2021/01/23 06:54:16;;;;;;;16.87;9.13;;;3.20;99.90;;;;;;5073480;28;20249;-82
2021/01/23 06:56:44;;;;;;;17.90;8.63;;;3.20;99.90;;;;;;5059203;28;20213;-80
2021/01/23 06:59:23;;;;;;;19.00;9.27;;;3.10;99.90;;;;;;5061287;28;20203;-81
2021/01/23 07:02:00;;;;;;;20.57;8.77;;;3.20;99.90;;;;;;5059667;28;20219;-81
2021/01/23 07:04:27;;;;;;;14.87;8.50;;;3.10;99.90;;;;;;5073369;28;20297;-80
2021/01/23 07:06:54;;;;;;;18.67;9.60;;;3.10;99.90;;;;;;5053368;28;20546;-80
2021/01/23 07:09:44;;;;;;;19.50;9.13;;;3.10;99.90;;;;;;5065003;28;20203;-80
2021/01/23 07:12:11;;;;;;;20.70;9.63;;;3.00;99.90;;;;;;5053135;28;20725;-80
2021/01/23 07:14:37;;;;;;;21.97;8.83;;;3.10;99.90;;;;;;5067042;28;20575;-80
2021/01/23 07:17:12;;;;;;;16.60;8.23;;;3.10;99.90;;;;;;5073374;28;20248;-81
2021/01/23 07:19:40;;;;;;;23.13;8.53;;;3.10;99.90;;;;;;5074292;28;20212;-81
2021/01/23 07:22:06;;;;;;;20.53;9.03;;;3.00;99.90;;;;;;5073022;28;20290;-81
2021/01/23 07:24:36;;;;;;;17.33;8.67;;;3.10;99.90;;;;;;5073875;28;20234;-81
2021/01/23 07:27:03;;;;;;;18.67;8.80;;;2.90;99.90;;;;;;5073340;28;20213;-82
2021/01/23 07:29:31;;;;;;;18.33;9.20;;;3.00;99.90;;;;;;5067464;28;20283;-80
2021/01/23 07:31:57;;;;;;;18.53;8.57;;;3.00;99.90;;;;;;5065306;28;20290;-79
2021/01/23 07:34:23;;;;;;;14.57;8.20;;;3.00;99.90;;;;;;5072478;28;20313;-81
2021/01/23 07:36:50;;;;;;;17.40;9.10;;;3.00;99.90;;;;;;5073142;28;20253;-81
2021/01/23 07:39:17;;;;;;;18.23;9.20;;;3.00;99.90;;;;;;5073115;28;20232;-80
2021/01/23 07:41:48;;;;;;;20.77;9.90;;;3.00;99.90;;;;;;5072858;28;20207;-81
2021/01/23 07:44:16;;;;;;;16.67;8.73;;;3.10;99.90;;;;;;5072586;28;20203;-81
2021/01/23 07:46:45;;;;;;;16.50;8.13;;;3.10;99.90;;;;;;5073349;28;20214;-80
2021/01/23 07:49:21;;;;;;;21.20;8.97;;;3.20;99.90;;;;;;5073038;28;20574;-82
2021/01/23 07:51:48;;;;;;;19.40;8.87;;;3.20;99.90;;;;;;5060373;28;20280;-80
2021/01/23 07:54:15;;;;;;;16.73;8.83;;;3.40;99.90;;;;;;5072975;28;20227;-81
2021/01/23 07:56:53;;;;;;;23.37;12.40;;;3.10;99.90;;;;;;5072715;28;20581;-80
2021/01/23 07:59:19;;;;;;;22.00;9.77;;;3.10;99.90;;;;;;5073145;28;20198;-80
2021/01/23 08:01:46;;;;;;;19.37;10.53;;;3.20;99.90;;;;;;5058437;28;20203;-81
2021/01/23 08:04:32;;;;;;;22.17;10.40;;;3.10;99.90;;;;;;5073207;28;20263;-80
2021/01/23 08:07:21;;;;;;;25.73;10.23;;;3.40;99.90;;;;;;5073135;28;20286;-81
2021/01/23 08:10:03;;;;;;;19.33;10.57;;;3.40;99.90;;;;;;5072984;28;20201;-80
2021/01/23 08:12:30;;;;;;;18.77;10.40;;;3.60;99.90;;;;;;5073191;28;20586;-80
2021/01/23 08:14:57;;;;;;;17.80;10.70;;;3.60;99.90;;;;;;5072482;28;20223;-80
2021/01/23 08:17:37;;;;;;;15.10;9.90;;;3.60;99.90;;;;;;5074553;28;20203;-80
2021/01/23 08:20:04;;;;;;;17.93;10.10;;;3.60;99.90;;;;;;5076428;28;20249;-81
2021/01/23 08:22:30;;;;;;;18.67;10.80;;;3.70;99.90;;;;;;5076425;28;20194;-80
2021/01/23 08:24:57;;;;;;;16.87;9.13;;;3.80;99.90;;;;;;5076619;28;20202;-80
2021/01/23 08:27:23;;;;;;;15.60;9.33;;;3.80;99.90;;;;;;5076297;28;20199;-81
2021/01/23 08:29:51;;;;;;;14.20;9.87;;;4.00;99.90;;;;;;5076377;28;20260;-81
2021/01/23 08:32:18;;;;;;;13.10;9.60;;;4.20;99.90;;;;;;5075885;28;20199;-83
2021/01/23 08:34:45;;;;;;;13.83;9.70;;;4.30;99.90;;;;;;5076410;28;20276;-81
2021/01/23 08:37:12;;;;;;;15.43;8.87;;;4.40;99.90;;;;;;5076352;28;20207;-81
2021/01/23 08:39:43;;;;;;;13.70;8.77;;;4.60;99.90;;;;;;5076041;28;20993;-81
2021/01/23 08:42:09;;;;;;;12.87;9.17;;;4.70;99.90;;;;;;5076305;28;20199;-81
2021/01/23 08:44:36;;;;;;;17.57;8.83;;;4.70;99.90;;;;;;5076393;28;20322;-82
2021/01/23 08:47:03;;;;;;;14.97;9.57;;;4.70;99.90;;;;;;5076439;28;20248;-81
2021/01/23 08:49:30;;;;;;;13.50;8.87;;;4.70;99.90;;;;;;5062050;28;20203;-81
2021/01/23 08:51:57;;;;;;;14.43;8.60;;;4.80;99.90;;;;;;5075951;28;20213;-81
2021/01/23 08:54:23;;;;;;;12.90;8.47;;;5.30;99.90;;;;;;5075648;28;20241;-82
2021/01/23 08:56:50;;;;;;;13.40;7.63;;;5.90;99.90;;;;;;5076248;28;20207;-81
2021/01/23 08:59:16;;;;;;;13.23;7.57;;;6.30;99.90;;;;;;5076050;28;20210;-82
2021/01/23 09:01:43;;;;;;;10.20;7.07;;;6.50;99.90;;;;;;5075789;28;20227;-82
2021/01/23 09:04:10;;;;;;;11.70;7.13;;;6.40;99.90;;;;;;5075960;28;20203;-82
2021/01/23 09:06:37;;;;;;;10.93;7.80;;;6.10;99.90;;;;;;5075371;28;20210;-81
2021/01/23 09:09:04;;;;;;;16.87;8.27;;;6.10;99.90;;;;;;5075867;28;20218;-82
2021/01/23 09:11:31;;;;;;;16.20;7.83;;;5.60;99.90;;;;;;5075518;28;20195;-81
2021/01/23 09:13:58;;;;;;;14.83;7.57;;;5.50;99.90;;;;;;5075830;28;20227;-81
2021/01/23 09:16:24;;;;;;;11.43;8.37;;;5.50;99.90;;;;;;5075524;28;20203;-83
2021/01/23 09:18:50;;;;;;;13.47;8.37;;;5.30;99.90;;;;;;5075350;28;20550;-81
2021/01/23 09:21:18;;;;;;;12.50;8.30;;;5.40;99.90;;;;;;5075567;28;20199;-81
2021/01/23 09:23:44;;;;;;;18.03;8.57;;;5.40;99.90;;;;;;5074954;28;20684;-82
2021/01/23 09:26:10;;;;;;;15.67;9.00;;;5.40;99.90;;;;;;5075006;28;20201;-82
2021/01/23 09:28:37;;;;;;;11.77;8.93;;;5.40;99.90;;;;;;5075157;28;20198;-81
2021/01/23 09:31:03;;;;;;;17.40;8.33;;;5.40;99.90;;;;;;5075157;28;20213;-80
2021/01/23 09:33:30;;;;;;;10.50;8.13;;;5.40;99.90;;;;;;5075183;28;20218;-81
2021/01/23 09:35:58;;;;;;;12.10;8.40;;;5.50;99.90;;;;;;5061211;28;20209;-81
2021/01/23 09:38:25;;;;;;;13.23;8.27;;;5.60;99.90;;;;;;5075305;28;20225;-81
2021/01/23 09:40:51;;;;;;;11.53;7.10;;;5.60;99.90;;;;;;5074993;28;20681;-81
2021/01/23 09:43:18;;;;;;;8.70;7.57;;;5.70;99.90;;;;;;5074761;28;20666;-81
2021/01/23 09:45:44;;;;;;;18.50;8.10;;;5.80;99.90;;;;;;5075278;28;20285;-81
2021/01/23 09:48:11;;;;;;;12.60;7.80;;;5.80;99.90;;;;;;5074793;28;20191;-82
2021/01/23 09:50:37;;;;;;;12.57;8.00;;;5.80;99.90;;;;;;5075150;28;20290;-82
2021/01/23 09:53:04;;;;;;;11.70;7.50;;;5.90;99.90;;;;;;5060763;28;20229;-82
2021/01/23 09:55:31;;;;;;;11.60;7.37;;;6.00;99.90;;;;;;5074798;28;20230;-82
2021/01/23 09:57:58;;;;;;;11.10;6.93;;;6.10;99.90;;;;;;5074866;28;20210;-82
2021/01/23 10:00:24;;;;;;;11.80;6.60;;;6.20;99.90;;;;;;5074844;28;20198;-82
2021/01/23 10:02:51;;;;;;;12.30;6.37;;;6.40;99.90;;;;;;5074673;28;20203;-82
2021/01/23 10:05:17;;;;;;;10.30;6.80;;;6.40;99.90;;;;;;5074864;28;20194;-82
2021/01/23 10:07:43;;;;;;;12.23;7.30;;;6.40;99.90;;;;;;5074346;28;20206;-82
2021/01/23 10:10:11;;;;;;;12.80;7.20;;;6.40;99.90;;;;;;5060639;28;20210;-82
2021/01/23 10:12:39;;;;;;;11.23;6.93;;;6.40;99.90;;;;;;5074691;28;20209;-83
2021/01/23 10:15:07;;;;;;;11.03;7.10;;;6.60;99.90;;;;;;5074536;28;20336;-82
2021/01/23 10:17:33;;;;;;;12.67;6.33;;;6.40;99.90;;;;;;5074453;28;20206;-82
2021/01/23 10:20:00;;;;;;;11.20;6.97;;;6.40;99.90;;;;;;5074295;28;20228;-84
2021/01/23 10:22:26;;;;;;;10.80;5.93;;;6.30;99.90;;;;;;5074361;28;20203;-83
2021/01/23 10:24:53;;;;;;;12.83;6.30;;;6.40;99.90;;;;;;5074471;28;20209;-83
2021/01/23 10:27:20;;;;;;;15.43;6.70;;;6.40;99.90;;;;;;5074276;28;20198;-83
2021/01/23 10:29:48;;;;;;;14.93;5.77;;;6.40;99.90;;;;;;5074002;28;20736;-82
2021/01/23 10:32:14;;;;;;;10.13;6.10;;;6.60;99.90;;;;;;5074215;28;20205;-82
2021/01/23 10:34:42;;;;;;;10.60;6.40;;;6.70;99.90;;;;;;5073744;28;20266;-82
2021/01/23 10:37:09;;;;;;;10.10;6.50;;;6.90;99.90;;;;;;5074459;28;20207;-82
2021/01/23 10:39:37;;;;;;;10.43;6.40;;;6.80;99.90;;;;;;5073456;28;20191;-83
2021/01/23 10:42:05;;;;;;;11.90;5.43;;;7.00;99.90;;;;;;5074295;28;20322;-82
2021/01/23 10:44:31;;;;;;;14.97;9.13;;;6.80;99.90;;;;;;5073516;28;20666;-82
2021/01/23 10:46:59;;;;;;;14.10;7.03;;;6.70;99.90;;;;;;5074515;28;20556;-83
2021/01/23 10:49:27;;;;;;;14.60;7.57;;;6.60;99.90;;;;;;5073803;28;20256;-83
2021/01/23 10:51:56;;;;;;;14.77;6.73;;;6.60;99.90;;;;;;5074102;28;20230;-83
2021/01/23 10:54:25;;;;;;;10.53;6.03;;;6.60;99.90;;;;;;5073947;28;20747;-83
2021/01/23 10:56:53;;;;;;;13.67;6.57;;;6.60;99.90;;;;;;5074494;28;20215;-83
2021/01/23 10:59:20;;;;;;;12.67;6.50;;;6.60;99.90;;;;;;5060512;28;20208;-83
2021/01/23 11:01:47;;;;;;;12.47;6.07;;;6.70;99.90;;;;;;5073288;28;20234;-84
2021/01/23 11:04:15;;;;;;;8.00;5.10;;;6.80;99.90;;;;;;5073676;28;20646;-84
2021/01/23 11:06:41;;;;;;;10.47;5.10;;;6.90;99.90;;;;;;5073783;28;20209;-84
2021/01/23 11:09:08;;;;;;;10.10;6.10;;;7.50;99.90;;;;;;5073538;28;20236;-83
2021/01/23 11:11:36;;;;;;;8.70;5.23;;;7.00;99.90;;;;;;5073526;28;20199;-83
2021/01/23 11:14:03;;;;;;;11.93;5.60;;;6.90;99.90;;;;;;5073158;28;20280;-83
2021/01/23 11:16:35;;;;;;;8.30;5.67;;;7.20;99.90;;;;;;5073510;28;20199;-83
2021/01/23 11:19:03;;;;;;;11.77;6.10;;;7.10;99.90;;;;;;5066098;28;20220;-83
2021/01/23 11:21:34;;;;;;;10.33;5.73;;;7.10;99.90;;;;;;5074749;28;20199;-83
2021/01/23 11:24:03;;;;;;;10.67;5.60;;;7.20;99.90;;;;;;5073007;28;20215;-83
2021/01/23 11:26:33;;;;;;;13.17;6.13;;;7.10;99.90;;;;;;5073517;28;20199;-83
2021/01/23 11:29:05;;;;;;;8.40;5.37;;;7.10;99.90;;;;;;5073587;28;20214;-84
2021/01/23 11:31:33;;;;;;;13.10;6.23;;;7.10;99.90;;;;;;5073505;28;20294;-84
2021/01/23 11:34:00;;;;;;;10.93;5.83;;;7.10;99.90;;;;;;5072865;28;20795;-84
2021/01/23 11:36:34;;;;;;;11.97;5.47;;;7.20;99.90;;;;;;5073302;28;20244;-83
2021/01/23 11:39:00;;;;;;;10.37;5.10;;;7.20;99.90;;;;;;5073021;28;20198;-84
2021/01/23 11:41:28;;;;;;;9.03;4.80;;;7.50;99.90;;;;;;5073561;28;20221;-84
2021/01/23 11:43:57;;;;;;;7.75;5.88;;;7.50;99.90;;;;;;5073433;28;20202;-83
2021/01/23 11:46:23;;;;;;;8.83;4.90;;;7.60;99.90;;;;;;5073071;28;20227;-84
2021/01/23 11:48:52;;;;;;;8.13;4.17;;;7.50;99.90;;;;;;5073174;28;20194;-83
2021/01/23 11:51:18;;;;;;;9.87;5.03;;;7.20;99.90;;;;;;5073301;28;20206;-84
2021/01/23 11:53:49;;;;;;;9.60;4.07;;;7.10;99.90;;;;;;5077414;28;20214;-84
2021/01/23 11:56:17;;;;;;;5.67;3.70;;;6.80;99.90;;;;;;5077564;28;20203;-84
2021/01/23 11:58:45;;;;;;;10.37;3.83;;;6.90;99.90;;;;;;5077256;28;20218;-84
2021/01/23 12:01:15;;;;;;;11.83;5.43;;;6.80;99.90;;;;;;5077179;28;20222;-84
2021/01/23 12:04:03;;;;;;;;;;;;;;;;;;;;;
2021/01/23 12:06:34;;;;;;;8.23;3.80;;;6.80;99.90;;;;;;5071007;28;20229;-85
2021/01/23 12:09:05;;;;;;;11.40;3.93;;;6.80;99.90;;;;;;5077021;28;20252;-84
2021/01/23 12:11:33;;;;;;;8.20;3.73;;;6.80;99.90;;;;;;5077222;28;20677;-84
2021/01/23 12:14:03;;;;;;;7.97;3.70;;;6.80;99.90;;;;;;5076588;28;20648;-83
2021/01/23 12:16:31;;;;;;;9.07;4.10;;;6.80;99.90;;;;;;5062857;28;20199;-84
2021/01/23 12:19:21;;;;;;;8.23;3.83;;;6.70;99.90;;;;;;5069994;28;20226;-84
2021/01/23 12:21:50;;;;;;;9.80;4.00;;;6.70;99.90;;;;;;5073453;28;20203;-84
2021/01/23 12:24:21;;;;;;;9.90;4.00;;;6.50;99.90;;;;;;5076735;28;20214;-85
2021/01/23 12:26:51;;;;;;;8.93;4.37;;;6.70;99.90;;;;;;5076740;28;20248;-84
2021/01/23 12:29:21;;;;;;;12.03;4.00;;;6.60;99.90;;;;;;5076706;28;20234;-84
2021/01/23 12:31:49;;;;;;;9.53;3.80;;;6.50;99.90;;;;;;5076916;28;20202;-84
2021/01/23 12:34:16;;;;;;;10.93;4.10;;;6.60;99.90;;;;;;5076195;28;20226;-84
2021/01/23 12:36:45;;;;;;;12.67;4.47;;;6.70;99.90;;;;;;5076593;28;20298;-84
2021/01/23 12:39:12;;;;;;;9.10;4.20;;;6.70;99.90;;;;;;5075908;28;20198;-85
2021/01/23 12:41:40;;;;;;;8.77;4.67;;;6.80;99.90;;;;;;5076420;28;20206;-84
2021/01/23 12:44:09;;;;;;;13.33;5.00;;;6.80;99.90;;;;;;5076388;28;20195;-85
2021/01/23 12:46:36;;;;;;;8.60;3.90;;;6.90;99.90;;;;;;5076378;28;20225;-84
2021/01/23 12:49:04;;;;;;;10.57;5.63;;;6.80;99.90;;;;;;5076453;28;20662;-84
2021/01/23 12:51:32;;;;;;;8.80;4.67;;;6.80;99.90;;;;;;5075783;28;20206;-84
2021/01/23 12:54:04;;;;;;;12.97;4.63;;;6.90;99.90;;;;;;5076025;28;20229;-84
2021/01/23 12:56:31;;;;;;;10.77;4.30;;;6.90;99.90;;;;;;5075713;28;20214;-84